»·PEaware :: N168TH KSBP-KPSP

N168TH :: KSBP-KPSP

FLIGHT INFORMATION

Flight Status: Arrived
Operator: Privately registered:
United States
More flights under this callsign
Pilot: Keenan Y. (13533)
Aircraft: Unknown
(EPIC)
More flights by this aircraft type
Origin: KSBP San Luis Co Regl
United States
Destination: KPSP Palm Springs Intl
United States
More flights between these airports :: More routes between these airports
Route: +RZS V386 FIM PMD V386 PSP
File this flight plan on PilotEdge
Remarks: TEC Route SBAP71
Altitude:
(Current/Filed)
11,000ft
Speed:
(Current/Filed)
260kts
Departed: 31-Jul-18 10:57 AM
Arrived: 31-Jul-18 12:42 PM
Distance/Time
Traveled:
221nm/1:45
Distance/Time
To Go:
Arrived

Flight Plot

Page will automatically refresh every two minutes.

Flight plan parsing failed; only flown route is shown


Map Options




Map Legend


Flown Route
Filed Route
Departure Airport
Arrival Airport
Navaid (VOR, NDB)
Fix

Horizontal Profiles

Position Reports

Time Latitude Longitude Heading Altitude Ground
Speed
31-Jul-18 10:33 35.238385 -120.640102 304 184ft 0kts
31-Jul-18 10:34 35.238385 -120.640102 304 184ft 0kts
31-Jul-18 10:35 35.238385 -120.640102 304 184ft 0kts
31-Jul-18 10:36 35.238385 -120.640102 304 184ft 0kts
31-Jul-18 10:37 35.238385 -120.640102 304 184ft 0kts
31-Jul-18 10:38 35.238385 -120.640102 304 184ft 0kts
31-Jul-18 10:39 35.238385 -120.640102 304 184ft 0kts
31-Jul-18 10:40 35.238385 -120.640102 304 184ft 0kts
31-Jul-18 10:41 35.238385 -120.640102 304 184ft 0kts
31-Jul-18 10:42 35.238385 -120.640102 304 184ft 0kts
31-Jul-18 10:43 35.238385 -120.640102 304 184ft 0kts
31-Jul-18 10:44 35.238385 -120.640102 304 184ft 0kts
31-Jul-18 10:45 35.238385 -120.640102 304 184ft 0kts
31-Jul-18 10:46 35.238385 -120.640102 304 184ft 0kts
31-Jul-18 10:47 35.238385 -120.640102 304 184ft 0kts
31-Jul-18 10:48 35.238385 -120.640102 304 184ft 0kts
31-Jul-18 10:49 35.238385 -120.640102 304 184ft 0kts
31-Jul-18 10:50 35.238385 -120.640102 304 184ft 0kts
31-Jul-18 10:51 35.238376 -120.640231 271 184ft 2kts
31-Jul-18 10:52 35.237136 -120.638764 124 184ft 13kts
31-Jul-18 10:53 35.234632 -120.634337 124 184ft 18kts
31-Jul-18 10:54 35.233185 -120.631973 249 184ft 0kts
31-Jul-18 10:55 35.233185 -120.631974 249 184ft 0kts
31-Jul-18 10:56 35.233185 -120.631973 249 184ft 0kts
31-Jul-18 10:57 35.233165 -120.633651 304 184ft 19kts
31-Jul-18 10:58 35.252288 -120.666540 303 1389ft 185kts
31-Jul-18 10:59 35.279127 -120.724458 298 4159ft 205kts
31-Jul-18 11:00 35.307251 -120.788880 295 5705ft 244kts
31-Jul-18 11:01 35.301965 -120.862329 208 6595ft 238kts
31-Jul-18 11:02 35.259104 -120.824764 89 7524ft 245kts
31-Jul-18 11:03 35.225466 -120.756952 135 8358ft 245kts
31-Jul-18 11:04 35.183571 -120.703094 131 9690ft 228kts
31-Jul-18 11:05 35.142183 -120.646117 130 10537ft 230kts
31-Jul-18 11:06 35.099940 -120.587187 130 11000ft 243kts
31-Jul-18 11:07 35.054636 -120.523912 130 10999ft 256kts
31-Jul-18 11:08 35.007797 -120.458565 130 10999ft 260kts
31-Jul-18 11:09 34.960425 -120.392593 130 10998ft 260kts
31-Jul-18 11:10 34.914552 -120.328833 131 10999ft 260kts
31-Jul-18 11:11 34.868022 -120.264283 131 10999ft 259kts
31-Jul-18 11:12 34.821394 -120.199688 132 10989ft 261kts
31-Jul-18 11:13 34.773534 -120.133570 132 10979ft 261kts
31-Jul-18 11:14 34.725391 -120.067160 132 10973ft 262kts
31-Jul-18 11:15 34.677989 -120.001890 132 10972ft 261kts
31-Jul-18 11:16 34.629972 -119.935898 132 10972ft 261kts
31-Jul-18 11:17 34.582495 -119.870772 132 10972ft 261kts
31-Jul-18 11:18 34.541515 -119.800984 97 10979ft 263kts
31-Jul-18 11:19 34.528260 -119.715106 103 10972ft 263kts
31-Jul-18 11:20 34.511534 -119.629548 104 10972ft 263kts
31-Jul-18 11:21 34.494386 -119.544989 105 10972ft 263kts
31-Jul-18 11:22 34.476908 -119.459556 105 10968ft 263kts
31-Jul-18 11:23 34.459490 -119.374812 105 10962ft 263kts
31-Jul-18 11:24 34.443376 -119.296705 105 10956ft 263kts
31-Jul-18 11:25 34.425686 -119.211280 105 10951ft 264kts
31-Jul-18 11:26 34.408395 -119.128089 105 10948ft 264kts
31-Jul-18 11:27 34.390700 -119.043323 105 10945ft 263kts
31-Jul-18 11:28 34.372755 -118.957617 104 10944ft 262kts
31-Jul-18 11:29 34.363618 -118.872026 73 10949ft 263kts
31-Jul-18 11:30 34.388696 -118.788944 69 10945ft 263kts
31-Jul-18 11:31 34.415990 -118.707018 68 10956ft 262kts
31-Jul-18 11:32 34.443355 -118.625868 68 10947ft 263kts
31-Jul-18 11:33 34.470583 -118.545101 68 10962ft 263kts
31-Jul-18 11:34 34.498045 -118.463447 68 10946ft 264kts
31-Jul-18 11:35 34.525258 -118.382427 68 10964ft 264kts
31-Jul-18 11:36 34.550997 -118.305433 69 10980ft 266kts
31-Jul-18 11:37 34.578093 -118.224244 69 10988ft 267kts
31-Jul-18 11:38 34.605472 -118.141998 69 10994ft 267kts
31-Jul-18 11:39 34.628178 -118.058290 91 11001ft 265kts
31-Jul-18 11:40 34.622774 -117.969455 95 10995ft 264kts
31-Jul-18 11:41 34.615355 -117.881161 95 10992ft 263kts
31-Jul-18 11:42 34.607563 -117.792789 96 10995ft 263kts
31-Jul-18 11:43 34.599698 -117.704652 96 11005ft 262kts
31-Jul-18 11:44 34.591840 -117.617657 96 11014ft 260kts
31-Jul-18 11:45 34.583930 -117.530670 96 11017ft 259kts
31-Jul-18 11:46 34.576007 -117.444269 96 11017ft 258kts
31-Jul-18 11:47 34.568035 -117.358005 96 11017ft 258kts
31-Jul-18 11:48 34.560213 -117.274014 97 11018ft 258kts
31-Jul-18 11:49 34.552133 -117.187271 96 11016ft 258kts
31-Jul-18 11:50 34.545849 -117.100332 94 11010ft 259kts
31-Jul-18 11:51 34.542056 -117.012664 92 10988ft 261kts
31-Jul-18 11:52 34.539984 -116.925036 101 11082ft 260kts
31-Jul-18 11:53 34.520990 -116.840282 99 11082ft 263kts
31-Jul-18 11:54 34.510643 -116.752508 97 11082ft 263kts
31-Jul-18 11:55 34.480880 -116.677845 150 11082ft 266kts
31-Jul-18 11:56 34.412607 -116.643770 158 11081ft 267kts
31-Jul-18 11:57 34.342633 -116.615095 160 11066ft 266kts
31-Jul-18 11:58 34.272991 -116.587527 160 11050ft 265kts
31-Jul-18 11:59 34.202569 -116.559803 160 10802ft 272kts
31-Jul-18 12:00 34.130904 -116.531667 160 10197ft 271kts
31-Jul-18 12:01 34.060697 -116.504175 160 9999ft 264kts
31-Jul-18 12:02 33.989753 -116.479100 155 9611ft 275kts
31-Jul-18 12:03 33.937609 -116.412729 130 8814ft 272kts
31-Jul-18 12:04 33.888583 -116.345070 131 8034ft 273kts
31-Jul-18 12:05 33.845234 -116.280844 83 7757ft 263kts
31-Jul-18 12:06 33.865524 -116.197747 74 7666ft 257kts
31-Jul-18 12:07 33.885735 -116.115724 74 7522ft 256kts
31-Jul-18 12:08 33.860115 -116.054292 183 7425ft 257kts
31-Jul-18 12:09 33.815040 -116.111227 225 7414ft 232kts
31-Jul-18 12:10 33.762063 -116.151141 205 6584ft 214kts
31-Jul-18 12:11 33.711173 -116.181044 203 5595ft 201kts
31-Jul-18 12:12 33.689672 -116.235224 259 5155ft 181kts
31-Jul-18 12:13 33.681897 -116.299169 261 4510ft 205kts
31-Jul-18 12:14 33.677342 -116.366452 290 3935ft 204kts
31-Jul-18 12:15 33.713813 -116.401365 320 3005ft 146kts
31-Jul-18 12:16 33.741236 -116.426241 320 2316ft 114kts
31-Jul-18 12:17 33.765765 -116.447980 320 1789ft 111kts
31-Jul-18 12:18 33.790015 -116.469918 320 1227ft 111kts
31-Jul-18 12:19 33.812549 -116.492503 322 735ft 117kts
31-Jul-18 12:20 33.846044 -116.517982 0 2663ft 188kts
31-Jul-18 12:21 33.865595 -116.469493 124 3933ft 223kts
31-Jul-18 12:22 33.825515 -116.409157 132 3910ft 243kts
31-Jul-18 12:23 33.778942 -116.348861 138 3991ft 250kts
31-Jul-18 12:24 33.730289 -116.288796 134 3948ft 251kts
31-Jul-18 12:25 33.682123 -116.228666 135 3923ft 250kts
31-Jul-18 12:26 33.634489 -116.168467 132 3913ft 248kts
31-Jul-18 12:27 33.582096 -116.115246 141 3912ft 247kts
31-Jul-18 12:28 33.583273 -116.051656 20 3908ft 258kts
31-Jul-18 12:29 33.644043 -116.090607 308 3898ft 242kts
31-Jul-18 12:30 33.615591 -116.129351 144 3913ft 214kts
31-Jul-18 12:31 33.571805 -116.082578 106 3907ft 213kts
31-Jul-18 12:32 33.611325 -116.045628 339 3928ft 226kts
31-Jul-18 12:33 33.648556 -116.103998 294 4018ft 223kts
31-Jul-18 12:34 33.678486 -116.170808 300 3932ft 222kts
31-Jul-18 12:35 33.703508 -116.234564 291 3947ft 213kts
31-Jul-18 12:36 33.725744 -116.297906 293 3961ft 202kts
31-Jul-18 12:37 33.748566 -116.356271 293 3773ft 169kts
31-Jul-18 12:38 33.763335 -116.392251 293 3031ft 94kts
31-Jul-18 12:39 33.775713 -116.421342 293 2350ft 101kts
31-Jul-18 12:40 33.788181 -116.451247 290 1658ft 101kts
31-Jul-18 12:41 33.803015 -116.479546 305 927ft 103kts
31-Jul-18 12:42 33.823493 -116.502119 321 426ft 82kts
31-Jul-18 12:43 33.828667 -116.507821 289 426ft 13kts
31-Jul-18 12:44 33.828443 -116.508435 180 426ft 11kts

Navigation Log

Ident Type
Flight plan parsing failed, navigation log unavailable